Time;durP1;ratioP1;P1;durP2;ratioP2;P2;SDS_P1;SDS_P2;PMS_P1;PMS_P2;Temp;Humidity;BMP_temperature;BMP_pressure;BME280_temperature;BME280_humidity;BME280_pressure;Samples;Min_cycle;Max_cycle;Signal;HPM_P1;HPM_P2
2022/01/30 00:01:30;;;;;;;9.93;6.07;;;;;;;4.01;84.38;97542.27;2281634;78;21002;-83
2022/01/30 00:04:31;;;;;;;12.37;5.30;;;;;;;4.09;83.92;97530.77;2281938;77;21298;-83
2022/01/30 00:07:31;;;;;;;8.77;4.00;;;;;;;4.21;84.00;97521.93;2281791;77;20977;-83
2022/01/30 00:10:37;;;;;;;7.23;4.30;;;;;;;4.31;83.67;97538.02;2282119;77;20958;-83
2022/01/30 00:13:34;;;;;;;8.00;3.57;;;;;;;4.39;83.45;97525.25;2281041;78;21057;-82
2022/01/30 00:16:36;;;;;;;5.07;3.63;;;;;;;4.42;83.53;97518.41;2281783;78;21347;-83
2022/01/30 00:19:53;;;;;;;4.50;3.70;;;;;;;4.46;83.95;97529.23;2280992;78;21420;-82
2022/01/30 00:23:12;;;;;;;8.27;3.73;;;;;;;4.46;83.73;97527.95;2279638;78;21334;-82
2022/01/30 00:26:03;;;;;;;4.80;3.50;;;;;;;4.45;83.50;97530.50;2277219;78;21088;-81
2022/01/30 00:29:04;;;;;;;11.50;3.83;;;;;;;4.45;83.27;97521.04;2258070;78;21045;-82
2022/01/30 00:32:05;;;;;;;7.37;3.60;;;;;;;4.45;83.35;97505.53;2281176;77;20974;-81
2022/01/30 00:35:05;;;;;;;6.60;2.90;;;;;;;4.47;83.30;97527.09;2281870;77;20921;-82
2022/01/30 00:38:06;;;;;;;4.53;3.13;;;;;;;4.52;83.34;97518.12;2281708;77;20917;-82
2022/01/30 00:41:07;;;;;;;5.93;3.40;;;;;;;4.54;83.49;97502.21;2281659;78;21391;-82
2022/01/30 00:44:07;;;;;;;10.03;3.13;;;;;;;4.55;84.34;97518.59;2281712;77;20918;-82
2022/01/30 00:47:12;;;;;;;4.63;2.67;;;;;;;4.50;86.38;97516.36;2281727;77;20988;-82
2022/01/30 00:50:10;;;;;;;4.87;2.70;;;;;;;4.43;86.20;97499.90;2280928;78;20986;-82
2022/01/30 00:53:10;;;;;;;7.50;3.00;;;;;;;4.40;86.52;97507.19;2257582;77;20957;-82
2022/01/30 00:56:11;;;;;;;7.70;2.97;;;;;;;4.39;86.69;97514.48;2249474;78;20959;-83
2022/01/30 00:59:11;;;;;;;5.93;2.73;;;;;;;4.40;86.69;97548.52;2249663;78;20912;-83
2022/01/30 01:02:12;;;;;;;5.97;3.17;;;;;;;4.55;86.79;97537.55;2249460;79;20944;-82
2022/01/30 01:05:13;;;;;;;2.57;1.70;;;;;;;4.52;86.71;97541.80;2249709;78;20917;-83
2022/01/30 01:08:19;;;;;;;3.73;2.40;;;;;;;4.48;86.50;97552.09;2249731;78;20880;-83
2022/01/30 01:11:53;;;;;;;3.90;2.47;;;;;;;4.47;85.83;97523.64;2248485;79;20988;-84
2022/01/30 01:23:53;;;;;;;3.77;2.40;;;;;;;4.42;87.25;97501.61;2226995;79;20920;-83
2022/01/30 01:26:54;;;;;;;5.50;2.83;;;;;;;4.36;88.76;97496.36;2249678;79;21058;-82
2022/01/30 01:29:55;;;;;;;9.73;3.37;;;;;;;4.31;87.96;97491.94;2249686;78;20943;-83
2022/01/30 01:33:01;;;;;;;5.33;2.40;;;;;;;4.26;88.34;97497.03;2226813;78;21402;-82
2022/01/30 01:35:59;;;;;;;8.97;2.77;;;;;;;4.25;88.06;97517.25;2249237;79;20976;-83
2022/01/30 01:39:00;;;;;;;7.30;2.60;;;;;;;4.21;87.16;97518.05;2249753;78;20935;-82
2022/01/30 01:42:00;;;;;;;8.33;2.50;;;;;;;4.19;84.71;97526.63;2249069;78;21006;-83
2022/01/30 01:45:01;;;;;;;7.37;2.33;;;;;;;4.11;83.19;97526.08;2248453;78;20955;-83
2022/01/30 01:48:08;;;;;;;10.87;2.93;;;;;;;4.01;83.52;97520.32;2249002;79;20909;-83
2022/01/30 01:51:15;;;;;;;6.13;2.03;;;;;;;3.92;82.14;97530.50;2249074;77;21024;-82
2022/01/30 01:54:09;;;;;;;8.83;2.30;;;;;;;3.86;81.67;97525.65;2245530;78;21020;-84
2022/01/30 01:57:10;;;;;;;8.23;2.13;;;;;;;3.81;80.43;97519.12;2246433;79;21026;-84
2022/01/30 02:00:10;;;;;;;5.83;1.87;;;;;;;3.77;78.74;97520.78;2246515;79;20960;-83
2022/01/30 02:03:11;;;;;;;8.53;2.47;;;;;;;3.78;78.44;97514.77;2246404;79;21016;-83
2022/01/30 02:06:15;;;;;;;4.97;1.63;;;;;;;3.75;77.15;97522.89;2246586;79;20932;-83
2022/01/30 02:09:14;;;;;;;13.17;2.70;;;;;;;3.78;76.82;97513.48;2246719;79;20980;-83
2022/01/30 02:12:24;;;;;;;10.77;2.20;;;;;;;3.82;75.90;97520.86;2247074;79;20920;-84
2022/01/30 02:28:14;;;;;;;8.13;2.10;;;;;;;3.90;72.45;97518.41;2223735;79;21015;-83
2022/01/30 02:31:19;;;;;;;12.67;2.20;;;;;;;3.84;72.69;97506.27;2244951;79;21047;-84
2022/01/30 02:34:16;;;;;;;7.77;2.30;;;;;;;3.78;72.04;97524.23;2244915;79;21392;-83
2022/01/30 02:37:17;;;;;;;6.67;2.20;;;;;;;3.72;72.64;97500.48;2246484;79;20955;-82
2022/01/30 02:40:18;;;;;;;14.17;3.17;;;;;;;3.71;71.41;97519.80;2246126;79;20971;-83
2022/01/30 02:43:23;;;;;;;8.03;2.47;;;;;;;3.71;72.57;97533.58;2246314;79;20959;-83
2022/01/30 02:46:27;;;;;;;9.23;3.03;;;;;;;3.70;73.30;97512.48;2245967;79;20977;-84
2022/01/30 02:49:29;;;;;;;8.93;2.17;;;;;;;3.69;74.42;97522.36;2245607;79;20973;-84
2022/01/30 02:52:26;;;;;;;8.67;2.50;;;;;;;3.71;75.17;97503.03;2257267;78;20967;-84
2022/01/30 02:55:26;;;;;;;7.57;2.13;;;;;;;3.66;75.39;97495.63;2281804;78;20933;-83
2022/01/30 02:58:27;;;;;;;7.83;2.00;;;;;;;3.62;75.49;97484.81;2281355;78;21369;-83
2022/01/30 03:01:27;;;;;;;6.80;2.17;;;;;;;3.63;75.49;97496.87;2282014;77;21322;-83
2022/01/30 03:04:28;;;;;;;8.97;1.97;;;;;;;3.59;75.61;97480.47;2282073;77;21337;-83
2022/01/30 03:07:28;;;;;;;10.70;2.77;;;;;;;3.60;75.03;97496.39;2282135;77;21309;-83
2022/01/30 03:10:29;;;;;;;13.77;2.77;;;;;;;3.59;74.89;97470.14;2282297;77;20919;-83
2022/01/30 03:13:29;;;;;;;9.57;2.30;;;;;;;3.61;74.41;97454.69;2282025;77;20968;-84
2022/01/30 03:16:30;;;;;;;10.33;2.63;;;;;;;3.59;74.18;97463.69;2280962;77;20989;-83
2022/01/30 03:19:30;;;;;;;11.40;2.50;;;;;;;3.60;74.39;97473.59;2280695;77;20966;-83
2022/01/30 03:22:31;;;;;;;14.40;3.03;;;;;;;3.60;74.65;97473.17;2281738;77;20962;-83
2022/01/30 03:25:33;;;;;;;7.37;2.43;;;;;;;3.60;74.03;97461.56;2281884;77;20941;-83
2022/01/30 03:28:35;;;;;;;10.40;2.53;;;;;;;3.60;74.47;97478.33;2281308;78;21064;-83
2022/01/30 03:31:36;;;;;;;12.57;2.93;;;;;;;3.63;74.51;97458.16;2281774;77;20931;-83
2022/01/30 03:34:37;;;;;;;7.50;2.30;;;;;;;3.62;74.25;97472.77;2281271;77;21009;-82
2022/01/30 03:37:37;;;;;;;7.73;2.37;;;;;;;3.65;74.29;97471.95;2281061;78;21057;-84
2022/01/30 03:40:37;;;;;;;14.37;2.60;;;;;;;3.67;74.06;97487.91;2281692;77;21373;-82
2022/01/30 03:43:38;;;;;;;12.47;2.50;;;;;;;3.68;74.25;97473.30;2282099;77;20923;-83
2022/01/30 03:46:38;;;;;;;9.20;2.33;;;;;;;3.65;74.42;97466.38;2281856;78;21254;-83
2022/01/30 03:49:39;;;;;;;12.50;2.40;;;;;;;3.63;74.70;97456.45;2281630;78;20926;-83
2022/01/30 03:52:40;;;;;;;10.03;2.93;;;;;;;3.59;74.78;97477.88;2285081;77;21012;-83
2022/01/30 03:55:41;;;;;;;10.83;2.67;;;;;;;3.57;75.23;97457.64;2291415;78;20992;-83
2022/01/30 03:58:41;;;;;;;14.93;3.53;;;;;;;3.50;75.60;97460.95;2291258;78;20983;-83
2022/01/30 04:01:42;;;;;;;9.90;2.53;;;;;;;3.44;76.00;97454.37;2291827;78;20952;-83
2022/01/30 04:04:42;;;;;;;12.23;2.70;;;;;;;3.38;76.25;97452.55;2291819;78;20885;-83
2022/01/30 04:07:43;;;;;;;12.60;3.07;;;;;;;3.36;75.73;97444.34;2291535;78;20873;-83
2022/01/30 04:10:43;;;;;;;9.33;2.63;;;;;;;3.35;75.69;97432.28;2291544;78;20940;-83
2022/01/30 04:13:44;;;;;;;10.40;2.33;;;;;;;3.34;75.03;97394.02;2291581;78;21462;-83
2022/01/30 04:16:44;;;;;;;17.80;2.53;;;;;;;3.35;75.23;97411.65;2291720;78;21375;-82
2022/01/30 04:19:44;;;;;;;11.73;2.63;;;;;;;3.32;75.11;97403.86;2291587;78;21315;-81
2022/01/30 04:22:45;;;;;;;10.23;2.57;;;;;;;3.34;74.20;97409.91;2290951;78;20940;-83
2022/01/30 04:25:45;;;;;;;9.10;2.33;;;;;;;3.35;74.21;97401.33;2291259;78;20964;-82
2022/01/30 04:28:46;;;;;;;14.53;2.40;;;;;;;3.34;74.08;97400.47;2291282;78;20964;-84
2022/01/30 04:31:49;;;;;;;12.00;2.87;;;;;;;3.32;73.75;97390.55;2291207;78;20928;-83
2022/01/30 04:34:55;;;;;;;10.00;2.80;;;;;;;3.27;74.24;97388.73;2290706;77;21027;-84
2022/01/30 05:00:58;;;;;;;10.80;3.30;;;;;;;3.55;69.33;97355.25;2248280;78;21059;-84
2022/01/30 05:10:13;;;;;;;18.50;3.27;;;;;;;3.76;66.98;97313.86;2227992;79;21351;-82
2022/01/30 05:13:17;;;;;;;10.47;2.73;;;;;;;3.79;66.84;97325.52;2249576;78;20959;-83
2022/01/30 05:16:17;;;;;;;9.40;2.67;;;;;;;3.82;65.74;97311.78;2249068;76;21029;-83
2022/01/30 05:19:18;;;;;;;10.43;2.87;;;;;;;3.86;66.11;97307.53;2249285;79;20940;-82
2022/01/30 05:22:18;;;;;;;8.87;2.47;;;;;;;3.89;65.15;97321.34;2249183;78;21011;-83
2022/01/30 05:25:19;;;;;;;11.57;2.80;;;;;;;3.91;65.61;97312.33;2249442;78;20893;-82
2022/01/30 05:28:19;;;;;;;8.40;2.80;;;;;;;3.92;65.27;97334.30;2248633;79;21011;-83
2022/01/30 05:31:19;;;;;;;8.60;3.00;;;;;;;3.95;65.15;97336.05;2248116;78;20979;-83
2022/01/30 05:34:20;;;;;;;6.47;2.70;;;;;;;3.97;65.57;97336.94;2248951;78;20924;-83
2022/01/30 05:37:20;;;;;;;10.63;3.30;;;;;;;4.06;64.66;97335.34;2248937;78;20936;-83
2022/01/30 05:40:21;;;;;;;14.60;2.73;;;;;;;4.03;65.64;97354.67;2249200;78;21315;-83
2022/01/30 05:43:23;;;;;;;8.13;2.57;;;;;;;4.00;65.43;97360.22;2249274;78;20951;-83
2022/01/30 05:46:34;;;;;;;10.00;3.40;;;;;;;4.04;66.96;97349.95;2249435;79;21004;-83
2022/01/30 05:49:32;;;;;;;12.43;2.67;;;;;;;4.07;65.48;97353.00;2249355;79;20960;-82
2022/01/30 05:52:32;;;;;;;10.97;3.40;;;;;;;4.04;64.99;97341.34;2249061;77;20945;-83
2022/01/30 05:55:32;;;;;;;13.30;3.53;;;;;;;4.00;64.85;97361.09;2249506;78;20960;-83
2022/01/30 05:58:33;;;;;;;11.23;3.00;;;;;;;3.95;67.57;97359.28;2249270;78;20975;-81
2022/01/30 06:01:33;;;;;;;7.53;2.33;;;;;;;3.59;72.34;97333.39;2249319;78;20979;-82
2022/01/30 06:04:34;;;;;;;14.20;3.83;;;;;;;3.31;72.31;97335.06;2249302;78;20924;-82
2022/01/30 06:07:37;;;;;;;11.37;3.93;;;;;;;3.17;73.15;97321.95;2248764;78;20971;-82
2022/01/30 06:10:37;;;;;;;13.40;3.20;;;;;;;3.02;74.40;97300.66;2249224;78;21016;-82
2022/01/30 06:13:37;;;;;;;15.67;3.20;;;;;;;2.88;75.36;97306.00;2249131;78;21042;-81
2022/01/30 06:16:38;;;;;;;10.83;3.27;;;;;;;2.75;75.74;97307.49;2249787;78;20980;-82
2022/01/30 06:19:38;;;;;;;11.57;4.03;;;;;;;2.69;76.25;97306.52;2249914;78;20923;-81
2022/01/30 06:22:39;;;;;;;12.93;3.73;;;;;;;2.67;76.12;97302.63;2249921;78;20916;-81
2022/01/30 06:25:39;;;;;;;20.23;3.60;;;;;;;2.68;76.40;97290.61;2250138;78;20915;-81
2022/01/30 06:28:40;;;;;;;13.00;3.40;;;;;;;2.72;76.32;97293.27;2249613;78;21023;-81
2022/01/30 06:31:41;;;;;;;19.50;4.93;;;;;;;2.83;75.77;97290.88;2249819;79;21019;-83
2022/01/30 06:34:41;;;;;;;17.97;3.90;;;;;;;2.92;74.66;97291.03;2249933;78;20965;-82
2022/01/30 06:37:41;;;;;;;14.07;4.00;;;;;;;2.97;74.87;97276.52;2249408;78;21427;-82
2022/01/30 06:40:42;;;;;;;13.93;3.93;;;;;;;3.00;74.33;97278.27;2248963;78;21957;-82
2022/01/30 06:43:42;;;;;;;12.33;4.07;;;;;;;3.07;73.06;97258.19;2249350;78;20900;-82
2022/01/30 06:46:45;;;;;;;15.73;3.97;;;;;;;3.16;73.17;97263.07;2226791;79;21453;-82
2022/01/30 06:49:45;;;;;;;20.67;4.40;;;;;;;3.26;72.20;97272.23;2249293;79;20944;-82
2022/01/30 06:52:46;;;;;;;8.77;2.90;;;;;;;3.31;71.50;97269.30;2252093;77;20912;-82
2022/01/30 06:55:47;;;;;;;15.03;2.50;;;;;;;3.41;69.84;97259.56;2281996;78;21322;-82
2022/01/30 06:58:47;;;;;;;13.13;3.87;;;;;;;3.48;69.45;97272.61;2282005;78;20970;-82
2022/01/30 07:01:49;;;;;;;13.10;3.90;;;;;;;3.56;69.09;97277.02;2281124;77;21028;-81
2022/01/30 07:04:49;;;;;;;106.97;55.33;;;;;;;3.57;69.79;97260.26;2281413;78;21364;-83
2022/01/30 07:07:50;;;;;;;16.07;4.23;;;;;;;4.96;78.49;97263.14;2281669;78;20951;-80
2022/01/30 07:10:50;;;;;;;14.03;4.33;;;;;;;5.05;66.17;97249.86;2280962;77;20933;-80
2022/01/30 07:13:51;;;;;;;17.77;5.00;;;;;;;4.60;66.07;97258.50;2280743;77;20961;-80
2022/01/30 07:16:51;;;;;;;16.43;3.63;;;;;;;4.30;67.14;97257.30;2281419;77;20938;-81
2022/01/30 07:19:52;;;;;;;14.07;4.00;;;;;;;4.08;68.56;97234.66;2281614;77;20969;-80
2022/01/30 07:22:52;;;;;;;16.77;4.27;;;;;;;3.88;69.79;97265.83;2281175;77;20942;-81
2022/01/30 07:25:53;;;;;;;11.13;3.60;;;;;;;3.72;70.40;97250.14;2281106;78;20867;-81
2022/01/30 07:28:53;;;;;;;13.90;3.63;;;;;;;3.66;70.97;97259.52;2281149;77;20977;-81
2022/01/30 07:31:53;;;;;;;16.47;4.73;;;;;;;3.61;71.50;97249.56;2280969;78;20962;-81
2022/01/30 07:34:54;;;;;;;10.87;4.50;;;;;;;3.60;71.86;97253.85;2280609;78;20934;-81
2022/01/30 07:37:54;;;;;;;18.93;4.33;;;;;;;3.68;72.10;97238.05;2280955;77;20934;-81
2022/01/30 07:40:55;;;;;;;14.13;4.90;;;;;;;3.83;72.19;97242.54;2280715;77;20953;-80
2022/01/30 07:43:55;;;;;;;13.50;4.07;;;;;;;3.85;72.51;97225.36;2279825;77;21297;-82
2022/01/30 07:46:56;;;;;;;15.37;3.80;;;;;;;3.74;72.76;97244.58;2279802;77;21317;-80
2022/01/30 07:49:56;;;;;;;18.57;4.27;;;;;;;3.66;73.25;97230.71;2280844;78;20941;-81
2022/01/30 07:52:57;;;;;;;16.57;4.07;;;;;;;3.59;73.36;97236.64;2280861;77;20931;-81
2022/01/30 07:55:57;;;;;;;10.93;4.03;;;;;;;3.56;73.75;97220.25;2281195;77;20937;-81
2022/01/30 07:58:58;;;;;;;11.87;3.53;;;;;;;3.51;73.31;97232.67;2281377;77;20938;-80
2022/01/30 08:01:58;;;;;;;13.30;3.30;;;;;;;3.57;73.19;97229.30;2281477;77;20946;-81
2022/01/30 08:04:59;;;;;;;7.97;3.00;;;;;;;3.61;72.51;97252.14;2281056;77;21377;-80
2022/01/30 08:08:00;;;;;;;11.83;3.67;;;;;;;3.60;71.81;97268.05;2280681;77;20898;-81
2022/01/30 08:11:00;;;;;;;9.40;3.53;;;;;;;3.57;71.66;97220.27;2279447;77;21935;-81
2022/01/30 08:14:01;;;;;;;10.17;3.03;;;;;;;3.56;71.59;97215.95;2281411;77;20894;-82
2022/01/30 08:17:01;;;;;;;9.87;3.60;;;;;;;3.61;71.31;97243.98;2281673;77;20922;-81
2022/01/30 08:20:02;;;;;;;11.03;3.83;;;;;;;3.59;71.31;97218.58;2281603;77;20906;-82
2022/01/30 08:23:10;;;;;;;15.33;4.23;;;;;;;3.60;71.69;97233.63;2281509;77;21306;-81
2022/01/30 08:26:05;;;;;;;11.57;3.13;;;;;;;3.57;72.33;97231.88;2280243;78;21400;-81
2022/01/30 08:29:05;;;;;;;8.17;3.43;;;;;;;3.56;72.62;97216.38;2281744;77;20998;-81
2022/01/30 08:32:11;;;;;;;14.03;4.03;;;;;;;3.60;73.44;97236.22;2281896;77;20911;-81
2022/01/30 08:35:08;;;;;;;10.33;4.00;;;;;;;3.50;74.87;97257.16;2281178;78;21385;-81
2022/01/30 08:38:10;;;;;;;15.43;3.73;;;;;;;3.35;75.59;97228.11;2281710;77;20906;-82
2022/01/30 08:41:11;;;;;;;52.77;29.63;;;;;;;3.32;75.67;97243.96;2281561;78;21037;-84
2022/01/30 08:44:12;;;;;;;147.43;89.50;;;;;;;3.48;81.51;97234.34;2282776;78;20985;-84
2022/01/30 08:47:13;;;;;;;13.17;5.00;;;;;;;4.94;82.55;97229.52;2281847;78;21061;-81
2022/01/30 08:50:13;;;;;;;5.03;2.30;;;;;;;5.27;69.82;97232.81;2280912;77;20902;-81
2022/01/30 08:53:14;;;;;;;7.27;3.23;;;;;;;4.69;70.29;97226.28;2282704;77;21003;-81
2022/01/30 08:56:14;;;;;;;10.17;3.10;;;;;;;4.32;70.71;97232.34;2291321;78;20916;-81
2022/01/30 08:59:15;;;;;;;14.37;3.80;;;;;;;4.05;70.64;97220.42;2291307;78;21375;-81
2022/01/30 09:02:15;;;;;;;13.53;3.90;;;;;;;3.94;71.13;97224.17;2291524;78;21003;-81
2022/01/30 09:05:16;;;;;;;12.43;4.00;;;;;;;3.84;72.02;97235.23;2291551;78;21347;-81
2022/01/30 09:08:17;;;;;;;16.57;5.70;;;;;;;3.75;73.28;97229.54;2291567;78;21292;-81
2022/01/30 09:11:17;;;;;;;11.57;4.23;;;;;;;3.58;74.20;97247.80;2291442;78;20929;-81
2022/01/30 09:14:18;;;;;;;9.47;3.17;;;;;;;3.37;75.30;97226.41;2291735;78;21295;-81
2022/01/30 09:17:18;;;;;;;13.97;4.53;;;;;;;3.24;75.97;97237.83;2291693;78;20881;-81
2022/01/30 09:20:19;;;;;;;17.63;4.57;;;;;;;3.10;77.04;97239.77;2290605;78;20952;-81
2022/01/30 09:23:19;;;;;;;15.80;4.53;;;;;;;3.08;77.10;97228.98;2290942;78;21039;-81
2022/01/30 09:26:20;;;;;;;13.10;4.30;;;;;;;3.06;77.47;97246.14;2290558;78;20928;-82
2022/01/30 09:29:22;;;;;;;15.43;5.27;;;;;;;3.02;78.69;97255.55;2290774;78;21395;-81
2022/01/30 09:32:23;;;;;;;14.83;4.67;;;;;;;2.98;80.18;97266.64;2290578;78;20936;-80
2022/01/30 09:35:23;;;;;;;297.60;190.43;;;;;;;2.87;81.06;97280.65;2291499;78;20928;-84
2022/01/30 09:38:24;;;;;;;147.80;82.20;;;;;;;3.51;88.75;97261.47;2292510;78;20908;-85
2022/01/30 09:41:25;;;;;;;30.10;14.17;;;;;;;4.50;82.52;97259.26;2291900;78;21236;-81
2022/01/30 09:44:25;;;;;;;17.27;4.50;;;;;;;4.96;77.34;97260.13;2291193;78;20928;-80
2022/01/30 09:47:26;;;;;;;19.40;6.40;;;;;;;4.21;77.85;97258.48;2291209;78;20900;-81
2022/01/30 09:50:26;;;;;;;15.60;4.77;;;;;;;3.78;78.87;97259.26;2291285;78;20893;-81
2022/01/30 09:53:27;;;;;;;13.17;5.57;;;;;;;3.52;80.00;97273.52;2290631;78;21311;-80
2022/01/30 09:56:27;;;;;;;14.30;5.60;;;;;;;3.34;80.72;97271.92;2281269;77;20990;-81
2022/01/30 09:59:27;;;;;;;13.93;5.53;;;;;;;3.24;81.35;97264.48;2281114;77;20970;-81
2022/01/30 10:02:28;;;;;;;14.93;5.57;;;;;;;3.14;81.95;97258.31;2281154;77;20927;-81
2022/01/30 10:05:33;;;;;;;14.23;5.70;;;;;;;3.09;82.14;97264.23;2281290;77;20899;-80
2022/01/30 10:08:41;;;;;;;;;;;;;;;3.13;81.94;97264.31;2283443;77;21471;-81
2022/01/30 10:11:41;;;;;;;16.07;6.67;;;;;;;3.18;81.50;97263.96;2280428;78;20162;-81
2022/01/30 10:14:38;;;;;;;13.33;5.13;;;;;;;3.31;81.90;97257.70;2280230;78;21412;-81
2022/01/30 10:17:38;;;;;;;12.13;4.53;;;;;;;3.49;81.04;97319.91;2281071;77;20938;-81
2022/01/30 10:20:39;;;;;;;15.90;6.20;;;;;;;3.60;80.19;97302.87;2280756;77;20966;-80
2022/01/30 10:23:39;;;;;;;17.27;6.33;;;;;;;3.66;80.02;97288.77;2280474;77;20988;-81
2022/01/30 10:26:40;;;;;;;16.53;5.60;;;;;;;3.67;79.66;97284.48;2280345;77;20923;-81
2022/01/30 10:29:40;;;;;;;20.60;8.13;;;;;;;3.75;79.39;97306.96;2280858;78;21032;-81
2022/01/30 10:32:41;;;;;;;18.90;6.93;;;;;;;3.77;79.99;97282.47;2281102;78;21637;-81
2022/01/30 10:35:41;;;;;;;21.53;6.30;;;;;;;3.62;79.60;97296.02;2280955;77;21289;-81
2022/01/30 10:38:46;;;;;;;17.93;8.20;;;;;;;3.48;79.59;97286.80;2280499;77;21404;-81
2022/01/30 10:41:53;;;;;;;20.43;7.73;;;;;;;3.38;79.85;97308.53;2280860;77;21386;-80
2022/01/30 10:44:47;;;;;;;15.80;5.00;;;;;;;3.33;80.35;97305.02;2279413;78;21058;-80
2022/01/30 10:47:48;;;;;;;20.97;5.93;;;;;;;3.32;80.39;97298.12;2281293;78;20993;-80
2022/01/30 10:50:49;;;;;;;21.53;5.73;;;;;;;3.28;80.48;97288.18;2281413;77;21258;-81
2022/01/30 10:56:51;;;;;;;21.63;6.10;;;;;;;3.22;80.76;97275.61;2261036;78;20983;-81
2022/01/30 10:59:56;;;;;;;26.43;7.03;;;;;;;3.19;80.59;97268.70;2281742;77;21001;-79
2022/01/30 11:02:54;;;;;;;47.53;24.67;;;;;;;3.17;80.20;97278.98;2280975;78;21033;-84
2022/01/30 11:05:55;;;;;;;56.83;27.93;;;;;;;3.19;82.20;97263.54;2282619;78;20879;-80
2022/01/30 11:08:55;;;;;;;24.37;6.23;;;;;;;4.08;81.86;97266.94;2281423;78;20970;-80
2022/01/30 11:12:01;;;;;;;18.37;5.83;;;;;;;3.80;78.37;97264.44;2281049;77;20950;-80
2022/01/30 11:15:04;;;;;;;22.97;7.23;;;;;;;3.49;79.73;97269.61;2280500;78;20946;-80
2022/01/30 11:18:03;;;;;;;26.90;6.17;;;;;;;3.23;80.23;97254.14;2280305;78;20994;-80
2022/01/30 11:21:03;;;;;;;15.80;5.20;;;;;;;3.01;81.46;97264.54;2280977;78;21006;-81
2022/01/30 11:24:03;;;;;;;20.40;7.00;;;;;;;2.82;82.73;97262.08;2280991;77;20887;-80
2022/01/30 11:27:04;;;;;;;22.63;6.70;;;;;;;2.70;83.01;97267.03;2280291;77;20973;-80
2022/01/30 11:30:05;;;;;;;16.37;6.00;;;;;;;2.59;84.55;97259.50;2278964;78;21357;-80
2022/01/30 11:33:05;;;;;;;28.47;7.90;;;;;;;2.48;84.57;97255.03;2278790;77;20942;-81
2022/01/30 11:36:06;;;;;;;30.27;9.43;;;;;;;2.45;84.30;97255.39;2278900;77;21613;-82
2022/01/30 11:39:06;;;;;;;15.77;7.00;;;;;;;2.41;85.08;97249.73;2279221;77;20949;-80
2022/01/30 11:42:07;;;;;;;25.63;9.13;;;;;;;2.38;85.46;97249.68;2279087;77;21004;-81
2022/01/30 11:45:07;;;;;;;21.10;7.00;;;;;;;2.38;85.68;97236.81;2278619;77;21005;-81
2022/01/30 11:48:08;;;;;;;30.27;10.07;;;;;;;2.38;85.64;97226.09;2278936;77;20946;-81
2022/01/30 11:51:08;;;;;;;33.00;9.53;;;;;;;2.38;85.49;97228.66;2278898;78;21383;-81
2022/01/30 11:54:09;;;;;;;26.53;8.53;;;;;;;2.41;85.47;97249.73;2280369;77;21436;-82
2022/01/30 11:57:09;;;;;;;27.60;7.63;;;;;;;2.43;85.38;97248.92;2289101;78;20929;-82
2022/01/30 12:00:10;;;;;;;29.30;7.70;;;;;;;2.47;85.51;97242.98;2290497;78;20999;-81
2022/01/30 12:03:10;;;;;;;22.13;5.87;;;;;;;2.51;85.29;97257.66;2290827;78;20960;-82
2022/01/30 12:06:11;;;;;;;15.83;6.17;;;;;;;2.51;85.01;97250.34;2290912;78;20908;-82
2022/01/30 12:09:11;;;;;;;22.43;5.70;;;;;;;2.51;85.04;97261.52;2290856;78;20935;-81
2022/01/30 12:12:12;;;;;;;25.50;6.93;;;;;;;2.52;84.90;97244.36;2291147;78;21296;-82
2022/01/30 12:15:12;;;;;;;20.43;6.13;;;;;;;2.58;85.10;97261.62;2290434;78;20876;-82
2022/01/30 12:18:12;;;;;;;22.23;5.80;;;;;;;2.59;84.83;97275.83;2291213;78;20932;-82
2022/01/30 12:21:13;;;;;;;19.07;7.00;;;;;;;2.69;83.91;97285.91;2291185;78;21092;-81
2022/01/30 12:24:13;;;;;;;18.87;7.47;;;;;;;2.77;84.02;97268.87;2290835;78;20893;-82
2022/01/30 12:27:14;;;;;;;20.43;7.20;;;;;;;2.82;84.12;97288.72;2290949;78;20963;-82
2022/01/30 12:30:14;;;;;;;19.60;5.87;;;;;;;2.87;83.52;97296.53;2291374;78;20955;-81
2022/01/30 12:33:15;;;;;;;16.23;5.10;;;;;;;2.98;82.46;97285.11;2291254;78;20924;-81
2022/01/30 12:36:15;;;;;;;17.63;5.40;;;;;;;3.04;81.67;97279.64;2290741;78;20936;-81
2022/01/30 12:39:21;;;;;;;20.20;5.87;;;;;;;3.09;81.10;97290.89;2289905;78;20964;-81
2022/01/30 12:42:18;;;;;;;120.07;61.90;;;;;;;3.07;81.67;97301.59;2290838;77;21398;-85
2022/01/30 12:45:18;;;;;;;21.47;6.57;;;;;;;3.39;86.12;97303.39;2291460;78;20952;-80
2022/01/30 12:48:19;;;;;;;11.43;4.13;;;;;;;3.56;80.78;97306.26;2290105;78;21350;-82
2022/01/30 12:51:21;;;;;;;12.67;4.77;;;;;;;3.27;81.28;97316.09;2291307;78;21272;-82
2022/01/30 12:54:22;;;;;;;12.73;4.13;;;;;;;3.06;82.86;97322.19;2289921;78;21038;-81
2022/01/30 12:57:22;;;;;;;19.10;5.80;;;;;;;2.92;83.78;97330.11;2281587;78;20911;-81
2022/01/30 13:00:23;;;;;;;15.13;4.87;;;;;;;2.82;84.59;97331.66;2281170;78;20969;-82
2022/01/30 13:03:24;;;;;;;14.50;4.67;;;;;;;2.70;85.72;97340.03;2281382;77;20970;-82
2022/01/30 13:06:25;;;;;;;12.93;4.60;;;;;;;2.62;86.11;97371.64;2281002;77;20957;-83
2022/01/30 13:09:28;;;;;;;12.03;4.90;;;;;;;2.53;87.51;97359.01;2281018;78;20952;-84
2022/01/30 13:12:29;;;;;;;10.00;4.12;;;;;;;2.43;88.04;97369.97;2281431;78;21010;-83
2022/01/30 13:15:34;;;;;;;10.93;3.80;;;;;;;2.40;88.27;97386.64;2281215;77;20946;-83
2022/01/30 13:18:32;;;;;;;11.37;3.87;;;;;;;2.34;88.66;97413.97;2280947;77;21381;-82
2022/01/30 13:21:33;;;;;;;11.67;4.37;;;;;;;2.29;88.92;97398.42;2281219;77;20911;-82
2022/01/30 13:24:33;;;;;;;12.30;4.03;;;;;;;2.23;89.62;97403.03;2281279;77;20906;-83
2022/01/30 13:27:34;;;;;;;23.83;10.93;;;;;;;2.22;89.95;97401.71;2281459;78;20883;-86
2022/01/30 13:30:34;;;;;;;518.77;366.67;;;;;;;2.22;90.92;97392.70;2283185;78;20973;-85
2022/01/30 13:33:35;;;;;;;17.57;6.63;;;;;;;3.52;99.19;97397.35;2282088;78;20911;-83
2022/01/30 13:36:35;;;;;;;10.63;4.33;;;;;;;3.76;85.52;97413.22;2282242;77;21322;-84
2022/01/30 13:39:38;;;;;;;10.90;4.10;;;;;;;3.15;86.32;97416.03;2282232;78;21321;-83
2022/01/30 13:42:46;;;;;;;10.43;4.37;;;;;;;2.79;87.69;97433.39;2282137;78;21010;-82
2022/01/30 13:48:44;;;;;;;10.03;3.53;;;;;;;2.48;89.42;97438.31;2261032;78;21022;-82
2022/01/30 13:51:45;;;;;;;14.87;4.13;;;;;;;2.37;90.12;97464.25;2281569;78;20958;-83
2022/01/30 13:54:45;;;;;;;11.77;4.67;;;;;;;2.30;90.90;97473.97;2275121;77;20952;-82
2022/01/30 13:57:45;;;;;;;11.37;4.20;;;;;;;2.25;91.21;97451.98;2249373;79;20901;-82
2022/01/30 14:00:46;;;;;;;8.47;3.93;;;;;;;2.23;91.30;97483.27;2248771;78;21027;-81
2022/01/30 14:03:46;;;;;;;10.23;3.60;;;;;;;2.22;91.79;97484.09;2247397;78;20986;-82
2022/01/30 14:06:49;;;;;;;13.10;3.63;;;;;;;2.17;91.82;97498.57;2247599;78;20916;-81
2022/01/30 14:09:52;;;;;;;12.73;5.20;;;;;;;2.15;92.06;97511.41;2248805;78;21000;-82
2022/01/30 14:12:52;;;;;;;20.57;6.00;;;;;;;2.10;92.20;97511.72;2248839;79;21078;-83
2022/01/30 14:15:53;;;;;;;15.17;5.17;;;;;;;2.06;92.53;97527.05;2247803;79;20971;-83
2022/01/30 14:18:56;;;;;;;16.37;5.17;;;;;;;2.01;92.63;97522.21;2247765;78;20951;-83
2022/01/30 14:21:57;;;;;;;18.97;5.27;;;;;;;1.99;92.87;97545.75;2247726;78;21055;-82
2022/01/30 14:24:57;;;;;;;18.90;5.97;;;;;;;1.96;93.28;97535.38;2247770;79;21012;-83
2022/01/30 14:27:58;;;;;;;17.13;5.63;;;;;;;1.96;93.47;97572.28;2248502;78;20912;-82
2022/01/30 14:30:58;;;;;;;18.00;5.50;;;;;;;1.96;93.45;97549.53;2249037;78;20972;-83
2022/01/30 14:33:59;;;;;;;24.87;6.57;;;;;;;1.98;93.50;97560.74;2249038;78;21298;-82
2022/01/30 14:37:01;;;;;;;26.93;6.93;;;;;;;2.04;93.39;97563.46;2249228;78;21304;-82
2022/01/30 14:40:05;;;;;;;40.50;8.97;;;;;;;2.11;93.04;97573.08;2249226;79;20920;-82
2022/01/30 14:43:05;;;;;;;34.67;8.80;;;;;;;2.17;92.86;97577.09;2248531;78;21010;-82
2022/01/30 14:46:06;;;;;;;43.43;9.87;;;;;;;2.23;92.55;97560.50;2248366;78;20951;-82
2022/01/30 14:49:07;;;;;;;39.77;10.33;;;;;;;2.28;92.26;97582.50;2249253;79;20931;-82
2022/01/30 14:52:09;;;;;;;44.80;9.17;;;;;;;2.33;91.36;97583.48;2225817;79;21004;-82
2022/01/30 14:55:10;;;;;;;34.40;9.00;;;;;;;2.39;91.08;97590.93;2257653;77;21004;-83
2022/01/30 14:58:15;;;;;;;37.97;9.17;;;;;;;2.40;90.98;97590.09;2261006;78;20965;-83
2022/01/30 15:01:14;;;;;;;30.80;7.33;;;;;;;2.44;90.39;97582.02;2281094;78;21045;-82
2022/01/30 15:04:15;;;;;;;30.73;8.83;;;;;;;2.50;90.00;97606.63;2281702;77;20918;-82
2022/01/30 15:07:15;;;;;;;30.97;8.07;;;;;;;2.51;90.19;97612.23;2281619;77;20906;-82
2022/01/30 15:10:16;;;;;;;36.30;9.20;;;;;;;2.53;89.39;97610.16;2281629;77;20973;-82